Time;durP1;ratioP1;P1;durP2;ratioP2;P2;SDS_P1;SDS_P2;PMS_P1;PMS_P2;Temp;Humidity;BMP_temperature;BMP_pressure;BME280_temperature;BME280_humidity;BME280_pressure;Samples;Min_cycle;Max_cycle;Signal;HPM_P1;HPM_P2
2023/03/02 00:00:33;;;;;;;46.77;20.60;;;3.30;83.60;;;;;;5069690;28;20882;-59
2023/03/02 00:03:00;;;;;;;56.43;22.30;;;;;;;;;;5071015;28;20488;-59
2023/03/02 00:05:28;;;;;;;60.03;22.63;;;3.30;83.80;;;;;;5072194;28;21064;-59
2023/03/02 00:07:56;;;;;;;50.87;20.50;;;3.30;83.90;;;;;;5068435;28;21090;-60
2023/03/02 00:10:23;;;;;;;41.53;15.93;;;3.30;83.90;;;;;;5073110;28;20485;-59
2023/03/02 00:12:51;;;;;;;58.83;22.73;;;;;;;;;;5070956;28;20813;-60
2023/03/02 00:15:19;;;;;;;38.83;16.77;;;3.20;83.90;;;;;;5053260;28;20553;-58
2023/03/02 00:17:46;;;;;;;51.77;20.40;;;3.20;83.90;;;;;;5062617;28;20489;-59
2023/03/02 00:20:13;;;;;;;46.20;19.23;;;3.20;84.00;;;;;;5071058;28;21279;-59
2023/03/02 00:22:41;;;;;;;51.90;19.80;;;3.20;84.00;;;;;;5033253;28;20493;-59
2023/03/02 00:25:09;;;;;;;46.00;17.33;;;;;;;;;;5073735;28;20486;-59
2023/03/02 00:27:36;;;;;;;43.47;15.27;;;;;;;;;;5043648;28;20781;-59
2023/03/02 00:30:04;;;;;;;55.40;18.63;;;3.20;84.30;;;;;;5064884;28;20952;-59
2023/03/02 00:32:33;;;;;;;45.37;18.90;;;3.10;84.20;;;;;;5070706;28;20886;-60
2023/03/02 00:35:00;;;;;;;59.23;19.80;;;;;;;;;;5064714;28;20844;-59
2023/03/02 00:37:26;;;;;;;56.37;17.90;;;3.20;84.40;;;;;;5070725;28;20471;-59
2023/03/02 00:39:53;;;;;;;73.10;23.23;;;0.50;81.90;;;;;;5066006;28;20466;-60
2023/03/02 00:42:20;;;;;;;48.83;17.47;;;3.10;84.60;;;;;;5070987;28;20575;-60
2023/03/02 00:44:47;;;;;;;53.03;18.47;;;3.00;84.50;;;;;;5067322;28;20961;-59
2023/03/02 00:47:14;;;;;;;48.83;19.27;;;3.00;84.60;;;;;;5070976;28;21218;-59
2023/03/02 00:49:47;;;;;;;66.50;16.90;;;;;;;;;;5068497;28;20486;-59
2023/03/02 00:52:14;;;;;;;52.27;15.63;;;6.30;87.90;;;;;;5069153;28;20484;-58
2023/03/02 00:54:41;;;;;;;41.50;17.90;;;3.10;85.00;;;;;;5065363;28;20551;-59
2023/03/02 00:57:08;;;;;;;52.03;20.13;;;2.70;84.60;;;;;;5070160;28;20581;-59
2023/03/02 00:59:37;;;;;;;49.33;19.27;;;3.00;85.00;;;;;;5067817;28;20474;-59
2023/03/02 01:02:04;;;;;;;41.57;18.37;;;3.00;84.90;;;;;;5070229;28;20482;-59
2023/03/02 01:04:33;;;;;;;41.53;15.57;;;2.90;85.00;;;;;;5065394;28;20485;-60
2023/03/02 01:07:03;;;;;;;55.27;18.83;;;2.90;85.00;;;;;;5067045;28;20483;-59
2023/03/02 01:09:31;;;;;;;35.40;14.43;;;;;;;;;;5070937;28;21076;-59
2023/03/02 01:11:58;;;;;;;46.50;20.03;;;;;;;;;;5068767;28;20544;-59
2023/03/02 01:14:25;;;;;;;51.60;19.80;;;2.80;85.10;;;;;;5067329;28;21024;-59
2023/03/02 01:16:51;;;;;;;42.53;17.33;;;2.80;85.20;;;;;;5074122;28;20889;-60
2023/03/02 01:19:18;;;;;;;28.53;12.67;;;0.90;83.40;;;;;;5070570;28;20483;-59
2023/03/02 01:21:45;;;;;;;34.57;11.67;;;2.80;85.30;;;;;;5069537;28;21428;-59
2023/03/02 01:24:13;;;;;;;46.83;14.33;;;2.70;85.40;;;;;;5067978;28;20497;-60
2023/03/02 01:26:40;;;;;;;54.30;17.30;;;2.80;85.50;;;;;;5064044;28;20485;-59
2023/03/02 01:29:06;;;;;;;31.77;10.27;;;2.70;85.40;;;;;;5069575;28;20504;-59
2023/03/02 01:31:33;;;;;;;37.03;17.57;;;2.70;85.50;;;;;;5073446;28;20478;-59
2023/03/02 01:34:00;;;;;;;55.93;17.30;;;2.70;85.60;;;;;;5061955;28;20477;-59
2023/03/02 01:36:26;;;;;;;45.50;19.07;;;2.70;85.70;;;;;;5075597;28;20482;-61
2023/03/02 01:38:53;;;;;;;70.33;22.23;;;2.70;85.70;;;;;;5068078;28;20485;-60
2023/03/02 01:41:22;;;;;;;50.07;17.90;;;2.60;85.70;;;;;;5059154;28;20551;-59
2023/03/02 01:43:48;;;;;;;41.10;16.57;;;2.60;85.80;;;;;;5080543;28;20486;-59
2023/03/02 01:46:17;;;;;;;54.10;18.60;;;2.60;86.00;;;;;;5067482;28;21031;-59
2023/03/02 01:48:47;;;;;;;41.87;13.47;;;2.60;86.00;;;;;;5055857;28;20489;-59
2023/03/02 01:51:16;;;;;;;39.43;14.83;;;;;;;;;;5074219;28;20482;-59
2023/03/02 01:53:45;;;;;;;46.13;15.60;;;2.60;86.10;;;;;;5067234;28;20479;-59
2023/03/02 01:56:13;;;;;;;50.23;19.40;;;;;;;;;;5065082;28;20820;-58
2023/03/02 01:58:41;;;;;;;55.97;16.50;;;2.60;86.10;;;;;;5055497;28;20519;-59
2023/03/02 02:01:14;;;;;;;49.77;15.47;;;2.60;86.20;;;;;;5075820;28;20848;-60
2023/03/02 02:03:42;;;;;;;38.50;14.17;;;2.60;86.00;;;;;;5059035;28;20825;-59
2023/03/02 02:06:16;;;;;;;62.90;19.60;;;;;;;;;;5069388;28;20470;-59
2023/03/02 02:08:44;;;;;;;55.83;20.23;;;1.30;85.00;;;;;;5055886;28;20478;-59
2023/03/02 02:11:11;;;;;;;47.73;18.67;;;2.60;86.30;;;;;;5068310;28;21824;-59
2023/03/02 02:13:38;;;;;;;53.57;20.00;;;2.50;86.30;;;;;;5064252;28;21449;-60
2023/03/02 02:16:07;;;;;;;26.97;10.17;;;1.30;85.30;;;;;;5066869;28;21008;-59
2023/03/02 02:18:37;;;;;;;47.30;17.87;;;2.50;86.50;;;;;;5065991;28;20487;-59
2023/03/02 02:21:04;;;;;;;42.60;16.47;;;2.50;86.50;;;;;;5067094;28;20499;-59
2023/03/02 02:23:35;;;;;;;53.13;18.00;;;;;;;;;;5068668;28;20470;-59
2023/03/02 02:26:11;;;;;;;75.27;22.90;;;2.50;86.60;;;;;;5067753;28;20562;-59
2023/03/02 02:28:42;;;;;;;63.40;19.40;;;2.50;86.60;;;;;;5061857;28;20668;-59
2023/03/02 02:31:13;;;;;;;47.73;16.93;;;;;;;;;;5072618;28;20486;-59
2023/03/02 02:33:42;;;;;;;53.20;17.20;;;2.50;86.80;;;;;;5058291;28;20583;-59
2023/03/02 02:36:10;;;;;;;48.70;15.30;;;;;;;;;;5070975;28;20487;-59
2023/03/02 02:38:38;;;;;;;57.97;22.63;;;;;;;;;;5065508;28;20888;-59
2023/03/02 02:41:08;;;;;;;41.40;13.00;;;;;;;;;;5068347;28;20893;-59
2023/03/02 02:43:35;;;;;;;32.80;14.57;;;;;;;;;;5057530;28;20989;-59
2023/03/02 02:46:02;;;;;;;41.90;13.03;;;2.50;86.80;;;;;;5058106;28;20515;-59
2023/03/02 02:48:31;;;;;;;32.47;9.70;;;2.50;86.80;;;;;;5064976;28;21040;-59
2023/03/02 02:51:00;;;;;;;48.33;20.03;;;2.40;86.80;;;;;;5073529;28;20470;-59
2023/03/02 02:53:30;;;;;;;32.57;12.60;;;2.40;86.90;;;;;;5059372;28;20569;-59
2023/03/02 02:55:58;;;;;;;41.60;15.40;;;2.40;86.90;;;;;;5069064;28;20480;-59
2023/03/02 02:58:30;;;;;;;36.30;15.20;;;;;;;;;;5065843;28;20485;-59
2023/03/02 03:00:57;;;;;;;56.93;20.40;;;;;;;;;;5065980;28;20531;-59
2023/03/02 03:03:31;;;;;;;42.17;13.60;;;2.40;86.90;;;;;;5065365;28;20493;-60
2023/03/02 03:05:59;;;;;;;53.43;23.10;;;2.40;87.10;;;;;;5058758;28;20483;-59
2023/03/02 03:08:56;;;;;;;50.80;16.10;;;;;;;;;;5066896;28;20478;-59
2023/03/02 03:11:25;;;;;;;55.10;19.03;;;2.40;87.30;;;;;;4993104;28;20489;-59
2023/03/02 03:14:01;;;;;;;52.97;20.67;;;2.30;87.30;;;;;;5042905;28;20477;-60
2023/03/02 03:16:29;;;;;;;61.97;21.90;;;;;;;;;;5064592;28;20489;-59
2023/03/02 03:18:59;;;;;;;60.23;20.90;;;2.30;87.20;;;;;;5082543;28;20466;-59
2023/03/02 03:21:26;;;;;;;44.63;15.93;;;;;;;;;;5071412;28;20470;-59
2023/03/02 03:23:53;;;;;;;71.70;20.77;;;;;;;;;;5070125;28;20528;-58
2023/03/02 03:26:20;;;;;;;83.00;17.20;;;2.30;87.30;;;;;;5072154;28;20873;-58
2023/03/02 03:28:47;;;;;;;71.00;19.17;;;2.30;87.40;;;;;;5066498;28;20580;-60
2023/03/02 03:31:15;;;;;;;45.80;15.23;;;;;;;;;;5075276;28;20571;-59
2023/03/02 03:33:42;;;;;;;65.03;20.03;;;;;;;;;;5071265;28;20608;-59
2023/03/02 03:36:09;;;;;;;48.53;17.77;;;2.30;87.40;;;;;;5070483;28;20474;-60
2023/03/02 03:38:36;;;;;;;47.90;16.67;;;2.30;87.40;;;;;;5068023;28;20482;-60
2023/03/02 03:41:02;;;;;;;43.37;16.67;;;2.30;87.50;;;;;;5067761;28;20839;-59
2023/03/02 03:43:29;;;;;;;44.40;17.43;;;2.20;87.50;;;;;;5070679;28;20654;-58
2023/03/02 03:45:56;;;;;;;72.53;21.70;;;2.20;87.60;;;;;;5071434;28;20543;-59
2023/03/02 03:48:24;;;;;;;51.93;19.30;;;2.20;87.70;;;;;;5070860;28;20478;-59
2023/03/02 03:50:50;;;;;;;93.73;26.53;;;2.20;87.70;;;;;;5069991;28;20479;-59
2023/03/02 03:53:17;;;;;;;66.50;23.27;;;2.20;87.80;;;;;;5070235;28;20479;-59
2023/03/02 03:55:44;;;;;;;64.77;22.60;;;2.20;87.80;;;;;;5071209;28;20711;-59
2023/03/02 03:58:10;;;;;;;47.13;17.23;;;2.20;87.80;;;;;;5056700;28;20519;-59
2023/03/02 04:00:37;;;;;;;49.53;19.67;;;2.20;88.00;;;;;;5082828;28;20713;-58
2023/03/02 04:03:04;;;;;;;68.93;20.70;;;2.10;88.00;;;;;;5066449;28;20477;-59
2023/03/02 04:05:32;;;;;;;62.23;20.77;;;2.20;88.10;;;;;;5074791;28;20530;-59
2023/03/02 04:08:00;;;;;;;55.20;18.00;;;2.20;88.00;;;;;;5063050;28;20886;-59
2023/03/02 04:10:29;;;;;;;51.63;20.73;;;2.10;88.00;;;;;;5066931;28;20474;-58
2023/03/02 04:12:55;;;;;;;66.10;22.73;;;2.20;88.00;;;;;;5068348;28;20473;-59
2023/03/02 04:15:23;;;;;;;56.30;18.23;;;2.20;88.10;;;;;;5062723;27;20481;-58
2023/03/02 04:17:50;;;;;;;58.30;21.27;;;2.20;88.10;;;;;;5086589;28;21064;-59
2023/03/02 04:20:20;;;;;;;61.60;19.00;;;2.10;88.00;;;;;;5070705;28;20866;-59
2023/03/02 04:22:51;;;;;;;52.60;18.07;;;2.10;88.00;;;;;;5070564;28;20547;-58
2023/03/02 04:25:20;;;;;;;55.00;18.60;;;;;;;;;;5071771;28;20473;-59
2023/03/02 04:27:49;;;;;;;51.93;16.07;;;2.10;88.10;;;;;;5075409;28;20822;-59
2023/03/02 04:30:18;;;;;;;77.93;22.63;;;;;;;;;;5069194;28;20563;-59
2023/03/02 04:32:45;;;;;;;59.93;17.60;;;2.10;87.90;;;;;;5065899;28;20512;-59
2023/03/02 04:35:12;;;;;;;45.37;16.90;;;2.10;88.00;;;;;;5069617;28;20483;-58
2023/03/02 04:37:40;;;;;;;64.10;22.10;;;2.10;88.00;;;;;;5068298;28;20536;-59
2023/03/02 04:40:12;;;;;;;46.83;14.50;;;;;;;;;;5064999;28;20773;-59
2023/03/02 04:42:39;;;;;;;66.80;22.70;;;;;;;;;;5053155;28;20477;-59
2023/03/02 04:45:06;;;;;;;54.13;18.80;;;2.10;87.90;;;;;;5066438;28;20550;-59
2023/03/02 04:47:33;;;;;;;43.40;19.10;;;2.10;87.80;;;;;;5059853;28;20471;-59
2023/03/02 04:50:00;;;;;;;53.83;17.93;;;2.10;87.90;;;;;;5057946;28;20479;-59
2023/03/02 04:52:26;;;;;;;53.67;21.30;;;2.10;88.00;;;;;;5075040;28;20900;-59
2023/03/02 04:54:53;;;;;;;79.20;22.57;;;;;;;;;;5068757;28;20475;-59
2023/03/02 04:57:21;;;;;;;77.67;22.40;;;2.10;88.10;;;;;;5069336;28;20482;-59
2023/03/02 04:59:48;;;;;;;58.63;21.50;;;2.10;87.90;;;;;;5059722;28;20888;-60
2023/03/02 05:02:15;;;;;;;77.40;23.00;;;2.10;87.80;;;;;;5065510;28;21122;-59
2023/03/02 05:04:41;;;;;;;61.67;17.90;;;2.10;87.70;;;;;;5081957;28;20487;-59
2023/03/02 05:07:08;;;;;;;66.90;21.03;;;2.10;87.80;;;;;;5066827;28;20487;-60
2023/03/02 05:09:36;;;;;;;54.77;19.60;;;;;;;;;;5067590;28;20502;-60
2023/03/02 05:12:03;;;;;;;72.80;19.80;;;2.00;87.80;;;;;;5067058;28;20486;-59
2023/03/02 05:14:32;;;;;;;73.43;21.40;;;1.90;87.80;;;;;;5066558;28;20907;-59
2023/03/02 05:16:59;;;;;;;90.93;26.10;;;;;;;;;;5066179;28;20536;-59
2023/03/02 05:19:26;;;;;;;73.77;24.37;;;2.00;88.10;;;;;;5070556;28;21013;-59
2023/03/02 05:21:52;;;;;;;67.37;22.00;;;2.00;88.00;;;;;;5068564;28;20478;-59
2023/03/02 05:24:19;;;;;;;54.30;19.37;;;2.00;88.10;;;;;;5069606;28;20500;-59
2023/03/02 05:26:46;;;;;;;66.63;22.20;;;2.00;88.00;;;;;;5066287;28;20487;-59
2023/03/02 05:29:12;;;;;;;60.63;21.13;;;1.90;88.20;;;;;;5063489;28;20897;-58
2023/03/02 05:31:42;;;;;;;52.40;19.93;;;1.90;88.30;;;;;;5063782;28;20901;-59
2023/03/02 05:34:11;;;;;;;33.73;14.40;;;;;;;;;;5077967;28;20527;-59
2023/03/02 05:36:39;;;;;;;56.70;18.93;;;1.90;88.50;;;;;;5067357;28;20760;-58
2023/03/02 05:39:07;;;;;;;46.20;18.37;;;1.90;88.60;;;;;;5064734;28;20474;-59
2023/03/02 05:41:34;;;;;;;47.53;17.53;;;;;;;;;;5068930;28;20479;-58
2023/03/02 05:44:01;;;;;;;45.57;17.10;;;;;;;;;;5062570;28;20926;-60
2023/03/02 05:46:28;;;;;;;53.83;20.40;;;1.80;88.60;;;;;;5075050;28;20543;-59
2023/03/02 05:48:56;;;;;;;63.27;21.80;;;1.80;88.70;;;;;;5056580;28;20857;-59
2023/03/02 05:51:23;;;;;;;55.17;18.63;;;1.80;88.70;;;;;;5062838;28;20482;-59
2023/03/02 05:53:50;;;;;;;77.43;22.00;;;;;;;;;;5065461;28;20883;-59
2023/03/02 05:56:19;;;;;;;65.73;22.23;;;;;;;;;;5063830;28;20883;-58
2023/03/02 05:58:46;;;;;;;69.57;17.67;;;;;;;;;;5069659;28;20477;-59
2023/03/02 06:01:13;;;;;;;63.17;19.67;;;1.80;88.90;;;;;;5068889;28;20540;-59
2023/03/02 06:03:40;;;;;;;59.37;20.83;;;;;;;;;;5056651;28;20482;-59
2023/03/02 06:06:12;;;;;;;52.70;20.50;;;1.80;88.90;;;;;;5069242;28;21393;-59
2023/03/02 06:08:39;;;;;;;44.63;15.47;;;1.90;88.90;;;;;;5068109;28;20828;-59
2023/03/02 06:11:07;;;;;;;66.87;20.90;;;1.90;88.90;;;;;;5065197;28;20496;-58
2023/03/02 06:13:34;;;;;;;55.83;16.07;;;;;;;;;;5075910;28;20470;-59
2023/03/02 06:16:01;;;;;;;60.70;19.10;;;;;;;;;;5068306;28;20909;-59
2023/03/02 06:18:27;;;;;;;39.53;13.80;;;1.90;88.90;;;;;;5069511;28;20487;-59
2023/03/02 06:20:54;;;;;;;94.50;26.20;;;1.90;89.00;;;;;;5067103;28;20466;-59
2023/03/02 06:23:22;;;;;;;69.97;19.90;;;1.90;88.90;;;;;;5068672;28;20789;-59
2023/03/02 06:25:49;;;;;;;91.30;25.77;;;;;;;;;;5068418;28;20563;-58
2023/03/02 06:28:18;;;;;;;49.40;15.80;;;;;;;;;;5061524;28;20535;-59
2023/03/02 06:30:47;;;;;;;49.43;16.13;;;;;;;;;;5045508;28;20563;-59
2023/03/02 06:33:14;;;;;;;48.07;16.80;;;;;;;;;;5069357;28;20471;-59
2023/03/02 06:35:41;;;;;;;71.57;20.80;;;2.00;89.10;;;;;;5067068;28;20872;-59
2023/03/02 06:38:08;;;;;;;45.00;16.83;;;2.00;89.10;;;;;;5036035;28;20496;-59
2023/03/02 06:40:35;;;;;;;44.23;15.80;;;2.00;89.10;;;;;;5076235;28;20943;-59
2023/03/02 06:43:02;;;;;;;49.37;15.70;;;;;;;;;;5073809;28;20777;-59
2023/03/02 06:45:32;;;;;;;69.03;20.00;;;;;;;;;;5068613;28;20508;-59
2023/03/02 06:47:59;;;;;;;52.90;18.13;;;2.10;89.00;;;;;;5056998;28;20470;-59
2023/03/02 06:50:26;;;;;;;33.53;12.20;;;2.20;89.10;;;;;;5062353;28;20486;-59
2023/03/02 06:52:53;;;;;;;82.40;19.67;;;;;;;;;;5069792;28;20481;-58
2023/03/02 06:55:20;;;;;;;55.33;20.07;;;2.30;89.10;;;;;;5060016;28;20485;-59
2023/03/02 06:57:48;;;;;;;61.10;20.67;;;2.30;89.10;;;;;;5081825;28;20490;-58
2023/03/02 07:00:16;;;;;;;53.17;17.80;;;2.40;89.00;;;;;;5071435;28;20504;-59
2023/03/02 07:02:43;;;;;;;52.73;19.60;;;0.90;87.40;;;;;;5061508;28;20565;-59
2023/03/02 07:05:10;;;;;;;40.33;16.00;;;3.70;90.00;;;;;;5076984;27;20478;-59
2023/03/02 07:07:37;;;;;;;55.97;17.77;;;2.60;88.80;;;;;;5067248;28;20489;-59
2023/03/02 07:10:04;;;;;;;39.67;14.30;;;2.60;88.60;;;;;;5056891;27;20732;-59
2023/03/02 07:12:31;;;;;;;51.00;22.00;;;2.80;88.70;;;;;;5076636;27;21033;-58
2023/03/02 07:14:59;;;;;;;64.87;21.40;;;2.90;88.70;;;;;;5064271;28;20485;-59
2023/03/02 07:17:25;;;;;;;51.87;20.00;;;3.20;88.90;;;;;;5073159;28;20888;-59
2023/03/02 07:19:52;;;;;;;65.70;24.73;;;3.90;89.30;;;;;;5071627;28;20531;-59
2023/03/02 07:22:19;;;;;;;49.63;19.63;;;4.70;87.80;;;;;;5062919;28;20483;-59
2023/03/02 07:24:45;;;;;;;45.53;20.43;;;5.40;86.20;;;;;;5064676;28;20485;-59
2023/03/02 07:27:14;;;;;;;76.17;26.20;;;6.30;85.20;;;;;;5084196;28;20555;-59
2023/03/02 07:29:41;;;;;;;34.03;14.63;;;9.80;85.10;;;;;;5070365;28;20477;-59
2023/03/02 07:32:09;;;;;;;44.57;20.63;;;7.50;81.90;;;;;;5065236;28;20481;-59
2023/03/02 07:34:35;;;;;;;58.97;21.83;;;8.10;81.00;;;;;;5077661;28;20478;-58
2023/03/02 07:37:02;;;;;;;59.07;22.57;;;;;;;;;;5068600;28;20477;-60
2023/03/02 07:39:29;;;;;;;68.80;22.83;;;8.60;78.70;;;;;;5070251;28;20473;-59
2023/03/02 07:41:57;;;;;;;56.60;23.93;;;8.30;77.20;;;;;;5073561;28;20514;-59
2023/03/02 07:44:24;;;;;;;48.00;19.90;;;7.90;77.50;;;;;;5058963;28;20873;-59
2023/03/02 07:46:51;;;;;;;69.70;26.67;;;7.40;78.30;;;;;;5078550;28;20486;-59
2023/03/02 07:49:19;;;;;;;55.53;17.00;;;7.00;78.40;;;;;;5071490;28;20478;-59
2023/03/02 07:51:46;;;;;;;74.20;23.80;;;6.80;79.90;;;;;;5072172;28;20587;-60
2023/03/02 07:54:12;;;;;;;49.43;17.60;;;6.50;79.90;;;;;;5070897;28;20536;-59
2023/03/02 07:56:40;;;;;;;34.83;14.10;;;6.30;80.30;;;;;;5064615;28;20507;-59
2023/03/02 07:59:07;;;;;;;56.70;20.10;;;6.20;81.50;;;;;;5069480;28;20593;-59
2023/03/02 08:01:34;;;;;;;45.53;15.00;;;;;;;;;;5063066;28;20486;-59
2023/03/02 08:04:01;;;;;;;49.23;20.90;;;6.60;81.80;;;;;;5072468;28;20482;-59
2023/03/02 08:06:29;;;;;;;44.03;17.80;;;7.10;81.70;;;;;;5070953;28;20475;-59
2023/03/02 08:08:56;;;;;;;54.23;22.80;;;7.80;81.60;;;;;;5053404;27;20550;-59
2023/03/02 08:11:22;;;;;;;53.83;21.87;;;8.50;80.60;;;;;;5067017;28;20539;-59
2023/03/02 08:13:49;;;;;;;64.90;23.33;;;9.10;79.70;;;;;;5069524;28;21217;-59
2023/03/02 08:16:16;;;;;;;44.20;18.97;;;9.50;77.30;;;;;;5070667;28;20904;-59
2023/03/02 08:18:43;;;;;;;39.33;18.07;;;9.90;76.90;;;;;;5070904;28;21034;-59
2023/03/02 08:21:12;;;;;;;59.67;21.60;;;10.30;75.90;;;;;;5064067;28;20881;-59
2023/03/02 08:23:41;;;;;;;50.83;21.33;;;;;;;;;;5080451;28;20741;-59
2023/03/02 08:26:08;;;;;;;47.53;19.77;;;;;;;;;;5069826;28;20490;-59
2023/03/02 08:28:34;;;;;;;49.33;20.70;;;10.50;74.10;;;;;;5070557;28;20486;-59
2023/03/02 08:31:03;;;;;;;56.93;22.60;;;10.50;74.10;;;;;;5057210;28;20489;-59
2023/03/02 08:33:30;;;;;;;46.83;19.63;;;8.30;72.50;;;;;;5081590;28;20548;-59
2023/03/02 08:35:58;;;;;;;48.60;21.03;;;10.50;75.10;;;;;;5070109;28;20679;-60
2023/03/02 08:38:25;;;;;;;50.73;19.33;;;10.40;73.60;;;;;;5070600;28;20481;-59
2023/03/02 08:40:54;;;;;;;49.27;21.30;;;;;;;;;;5067670;28;20873;-59
2023/03/02 08:43:22;;;;;;;49.53;21.40;;;10.00;74.30;;;;;;5063019;28;20486;-59
2023/03/02 08:45:51;;;;;;;48.83;21.27;;;9.90;76.00;;;;;;5053554;28;20527;-59
2023/03/02 08:48:18;;;;;;;54.23;22.20;;;;;;;;;;5074908;28;20512;-59
2023/03/02 08:50:46;;;;;;;36.83;17.30;;;;;;;;;;5069003;28;20501;-59
2023/03/02 08:53:12;;;;;;;62.10;25.93;;;9.70;76.70;;;;;;5070030;28;20838;-59
2023/03/02 08:55:39;;;;;;;53.97;22.47;;;9.70;76.10;;;;;;5071144;28;20941;-58
2023/03/02 08:58:07;;;;;;;46.50;19.20;;;9.40;75.50;;;;;;5068344;28;20580;-59
2023/03/02 09:00:33;;;;;;;54.80;22.30;;;9.30;76.10;;;;;;5070082;28;21043;-59
2023/03/02 09:03:01;;;;;;;50.40;22.63;;;;;;;;;;5075055;28;20470;-60
2023/03/02 09:05:27;;;;;;;39.63;17.70;;;9.20;77.00;;;;;;5072806;28;20490;-60
2023/03/02 09:07:54;;;;;;;60.67;26.93;;;;;;;;;;5071233;27;20479;-60
2023/03/02 09:10:21;;;;;;;58.27;21.80;;;9.20;77.50;;;;;;5069164;28;20479;-60
2023/03/02 09:12:48;;;;;;;51.67;24.23;;;9.20;76.90;;;;;;5068140;28;20852;-60
2023/03/02 09:15:16;;;;;;;88.33;36.17;;;9.20;77.60;;;;;;5065698;28;20587;-60
2023/03/02 09:17:43;;;;;;;53.33;23.57;;;;;;;;;;5069804;28;20555;-60
2023/03/02 09:20:11;;;;;;;43.27;18.97;;;9.10;76.80;;;;;;5054728;28;20486;-60
2023/03/02 09:22:37;;;;;;;40.83;21.00;;;9.10;78.30;;;;;;5061172;28;20635;-60
2023/03/02 09:25:05;;;;;;;47.90;19.77;;;9.00;78.10;;;;;;5067325;28;20814;-60
2023/03/02 09:27:32;;;;;;;55.80;20.10;;;9.10;79.50;;;;;;5069698;28;21282;-60
2023/03/02 09:29:58;;;;;;;53.47;22.40;;;9.10;78.00;;;;;;5069981;28;20479;-60
2023/03/02 09:32:26;;;;;;;58.47;23.03;;;9.20;78.80;;;;;;5066009;28;20884;-60
2023/03/02 09:34:53;;;;;;;56.40;26.03;;;9.40;80.10;;;;;;5067055;28;20474;-60
2023/03/02 09:37:20;;;;;;;50.17;20.93;;;10.20;77.90;;;;;;5068667;28;20839;-60
2023/03/02 09:39:47;;;;;;;40.00;19.60;;;9.60;78.10;;;;;;5069916;28;20478;-61
2023/03/02 09:42:32;;;;;;;42.23;22.27;;;9.70;79.00;;;;;;5069657;28;20487;-61
2023/03/02 09:45:19;;;;;;;46.03;23.80;;;9.70;77.80;;;;;;5069700;28;20478;-61
2023/03/02 09:47:55;;;;;;;63.33;24.17;;;9.80;79.00;;;;;;5059470;28;20494;-60
2023/03/02 09:50:31;;;;;;;47.40;21.27;;;9.90;79.60;;;;;;5069169;28;21263;-60
2023/03/02 09:53:05;;;;;;;60.90;25.43;;;;;;;;;;5068993;28;20481;-60
2023/03/02 09:55:35;;;;;;;43.30;19.90;;;10.40;77.50;;;;;;5057696;28;20476;-60
2023/03/02 09:58:06;;;;;;;48.87;23.73;;;10.60;77.70;;;;;;5069086;28;20470;-60
2023/03/02 10:00:36;;;;;;;49.00;23.37;;;10.80;76.60;;;;;;5060466;28;20897;-60
2023/03/02 10:03:07;;;;;;;56.60;20.43;;;10.80;75.50;;;;;;5068482;28;20552;-60
2023/03/02 10:05:39;;;;;;;48.73;21.57;;;10.80;76.60;;;;;;5055970;28;20827;-60
2023/03/02 10:08:06;;;;;;;38.07;20.27;;;10.80;75.80;;;;;;5068928;28;20477;-60
2023/03/02 10:10:41;;;;;;;44.53;18.40;;;10.80;75.50;;;;;;5077921;28;20478;-60
2023/03/02 10:13:15;;;;;;;42.60;20.57;;;;;;;;;;5051716;28;20481;-60
2023/03/02 10:15:46;;;;;;;45.97;21.30;;;;;;;;;;5056597;28;20574;-60
2023/03/02 10:18:19;;;;;;;58.47;22.20;;;;;;;;;;5055408;28;20527;-60
2023/03/02 10:20:52;;;;;;;49.23;21.73;;;12.50;76.60;;;;;;5058903;28;20479;-60
2023/03/02 10:23:35;;;;;;;55.37;24.07;;;11.20;76.80;;;;;;5067645;28;20531;-60
2023/03/02 10:26:10;;;;;;;55.53;21.53;;;11.30;77.10;;;;;;5077502;28;20566;-60
2023/03/02 10:28:42;;;;;;;46.20;22.57;;;;;;;;;;5069771;28;20481;-59
2023/03/02 10:31:12;;;;;;;50.07;20.43;;;11.70;77.30;;;;;;5072527;28;20486;-59
2023/03/02 10:33:41;;;;;;;52.13;22.33;;;11.90;76.20;;;;;;5074276;28;20533;-59
2023/03/02 10:36:16;;;;;;;45.40;21.40;;;;;;;;;;5066609;28;20629;-59
2023/03/02 10:38:43;;;;;;;44.50;20.63;;;12.30;75.70;;;;;;5060901;28;20550;-59
2023/03/02 10:41:15;;;;;;;47.97;22.70;;;13.50;76.90;;;;;;5070407;28;20480;-59
2023/03/02 10:43:45;;;;;;;54.00;22.70;;;;;;;;;;5065739;28;20493;-60
2023/03/02 10:46:13;;;;;;;53.47;22.50;;;12.70;76.60;;;;;;5072889;28;20485;-59
2023/03/02 10:48:49;;;;;;;61.77;21.83;;;12.90;77.10;;;;;;5069665;27;20546;-59
2023/03/02 10:51:23;;;;;;;61.40;21.90;;;;;;;;;;5063417;28;20482;-59
2023/03/02 10:53:50;;;;;;;63.50;24.97;;;12.70;75.30;;;;;;5050337;28;20470;-59
2023/03/02 10:56:20;;;;;;;56.87;22.60;;;12.80;75.40;;;;;;5079964;28;20482;-60
2023/03/02 10:58:47;;;;;;;80.90;26.40;;;;;;;;;;5070719;28;20910;-60
2023/03/02 11:01:17;;;;;;;59.43;23.60;;;12.80;75.80;;;;;;5069535;28;20482;-60
2023/03/02 11:03:56;;;;;;;64.37;23.57;;;12.80;76.80;;;;;;5070126;28;20555;-60
2023/03/02 11:06:24;;;;;;;67.20;24.40;;;12.80;76.60;;;;;;5063429;28;20474;-60
2023/03/02 11:08:59;;;;;;;65.33;27.07;;;13.00;75.10;;;;;;5068075;28;20474;-60
2023/03/02 11:11:26;;;;;;;45.20;20.67;;;13.20;76.60;;;;;;5061632;28;20743;-61
2023/03/02 11:13:55;;;;;;;62.03;27.13;;;13.50;77.00;;;;;;5063289;28;20859;-61
2023/03/02 11:16:30;;;;;;;53.97;22.50;;;13.80;76.60;;;;;;5062384;28;20574;-61
2023/03/02 11:19:02;;;;;;;55.43;27.07;;;13.90;74.50;;;;;;5059850;28;20470;-61
2023/03/02 11:21:34;;;;;;;43.03;21.57;;;14.00;75.10;;;;;;5067684;28;20482;-61
2023/03/02 11:24:08;;;;;;;31.53;18.20;;;14.10;74.00;;;;;;5064194;28;20826;-61
2023/03/02 11:26:38;;;;;;;32.20;19.67;;;14.10;75.80;;;;;;5055465;28;20488;-61
2023/03/02 11:29:14;;;;;;;31.93;18.03;;;13.70;73.30;;;;;;5071718;28;21412;-61
2023/03/02 11:31:46;;;;;;;45.50;18.13;;;13.60;73.60;;;;;;5071852;28;20874;-61
2023/03/02 11:34:28;;;;;;;32.90;20.10;;;13.80;76.50;;;;;;5062377;28;20948;-61
2023/03/02 11:37:02;;;;;;;41.23;23.73;;;13.90;75.70;;;;;;5065637;28;21002;-61
2023/03/02 11:39:36;;;;;;;36.40;20.40;;;14.10;75.10;;;;;;5060115;28;20482;-61
2023/03/02 11:42:03;;;;;;;33.37;18.83;;;14.30;74.60;;;;;;5061278;28;20880;-61
2023/03/02 11:44:29;;;;;;;35.13;20.33;;;14.40;74.70;;;;;;5061033;28;20856;-61
2023/03/02 11:47:00;;;;;;;37.50;21.80;;;14.60;75.40;;;;;;5079861;28;20831;-61
2023/03/02 11:49:33;;;;;;;36.07;19.40;;;;;;;;;;5072440;28;20882;-60
2023/03/02 11:52:01;;;;;;;38.57;22.00;;;14.60;73.10;;;;;;5068132;28;20508;-61
2023/03/02 11:54:40;;;;;;;36.63;19.77;;;14.70;74.90;;;;;;5075528;27;20950;-61
2023/03/02 11:57:20;;;;;;;39.53;19.47;;;15.00;76.90;;;;;;5064570;28;20470;-61
2023/03/02 11:59:47;;;;;;;41.80;23.97;;;15.20;73.40;;;;;;5066138;28;20535;-60
2023/03/02 12:02:15;;;;;;;36.23;19.70;;;15.30;72.50;;;;;;5056840;28;20844;-61
2023/03/02 12:04:43;;;;;;;36.60;21.00;;;15.40;72.20;;;;;;5083570;28;20509;-60
2023/03/02 12:07:21;;;;;;;41.30;21.57;;;15.40;72.80;;;;;;5049234;28;20465;-61
2023/03/02 12:09:58;;;;;;;38.83;24.87;;;15.60;73.50;;;;;;5060074;28;20485;-60
2023/03/02 12:12:41;;;;;;;31.97;19.47;;;15.60;72.00;;;;;;5062211;28;20473;-61
2023/03/02 12:15:29;;;;;;;28.33;19.03;;;15.40;71.40;;;;;;5057126;28;20482;-60
2023/03/02 12:17:56;;;;;;;37.00;20.90;;;15.50;73.80;;;;;;5059529;28;20501;-60
2023/03/02 12:20:27;;;;;;;37.57;21.30;;;15.40;73.30;;;;;;5057871;28;20485;-60
2023/03/02 12:23:05;;;;;;;41.10;24.53;;;14.90;70.60;;;;;;5050981;28;20473;-61
2023/03/02 12:25:48;;;;;;;32.27;17.00;;;14.50;70.30;;;;;;5072720;28;20474;-60
2023/03/02 12:28:33;;;;;;;36.50;23.10;;;14.50;73.10;;;;;;5066464;28;20544;-60
2023/03/02 12:31:06;;;;;;;30.90;19.87;;;14.70;73.70;;;;;;5060304;28;20474;-60
2023/03/02 12:33:37;;;;;;;40.20;19.47;;;14.50;70.90;;;;;;5067332;28;20469;-60
2023/03/02 12:36:14;;;;;;;41.43;21.03;;;14.60;73.90;;;;;;5063847;28;20895;-60
2023/03/02 12:38:46;;;;;;;42.23;21.70;;;14.80;73.40;;;;;;5060153;28;20508;-60
2023/03/02 12:41:21;;;;;;;50.00;21.03;;;;;;;;;;5077036;28;20778;-60
2023/03/02 12:44:00;;;;;;;42.93;21.57;;;15.00;74.00;;;;;;5068115;28;20482;-60
2023/03/02 12:46:32;;;;;;;44.03;20.97;;;15.20;74.70;;;;;;5067271;28;21572;-61
2023/03/02 12:49:15;;;;;;;47.63;21.30;;;;;;;;;;5059048;28;20473;-61
2023/03/02 12:51:51;;;;;;;41.63;21.33;;;15.80;73.60;;;;;;5059413;28;21027;-61
2023/03/02 12:54:20;;;;;;;38.90;18.10;;;16.00;72.50;;;;;;5076357;27;20731;-61
2023/03/02 12:56:48;;;;;;;38.60;16.30;;;15.60;68.50;;;;;;5043688;28;20547;-61
2023/03/02 12:59:23;;;;;;;44.37;22.97;;;15.40;69.70;;;;;;5058651;28;21052;-61
2023/03/02 13:01:50;;;;;;;79.53;29.33;;;;;;;;;;5065860;28;20490;-61
2023/03/02 13:04:25;;;;;;;64.53;23.10;;;15.60;73.30;;;;;;5067817;28;20483;-61